Shimanami Star — C6VN9 — position and weather

sailwx.info

Track history (hours):
 
Tides and Currents Weather Stations Pressure Air Temp Water Temp Dewpoint Dewpoint Depression Visibility Wind Speed Wind Dir Waves Ship Positions

Shimanami Star

Last reported at 2017-Jun-28 17:10 UTC. Time now 2017-Jun-29 09:10 UTC.
Position N 35°59' W 005°12'.

Length 170 m; draft 9.8 m.

Type: Cargo ship. MMSI: 309116000.

Date/timePositionNaut miles runAvg speedWind from/ knotsBaromVisibWave heightAir tempDewpointWater temp
2017-Jun-28 17:10N 35°59' W 005°12'215.4
2017-Jun-28 17:00N 35°59' W 005°15'611.1
2017-Jun-28 16:31N 36°02' W 005°21'4 5.7
2017-Jun-28 15:47N 36°05' W 005°25'0 0.0
2017-Jun-28 15:29N 36°05' W 005°25'0 0.0
2017-Jun-28 14:59N 36°05' W 005°25'0 0.1
2017-Jun-28 14:29N 36°05' W 005°25'0 0.1
2017-Jun-28 12:11N 36°05' W 005°25'0 0.1
2017-Jun-28 11:59N 36°05' W 005°25'0 0.1
2017-Jun-28 08:44N 36°05' W 005°25'0 1.2
2017-Jun-28 08:31N 36°05' W 005°25'2 4.2
2017-Jun-28 08:00N 36°04' W 005°22'0 0.5
2017-Jun-28 07:30N 36°04' W 005°22'3 5.2
2017-Jun-28 07:00N 36°01' W 005°21'4 7.4
2017-Jun-28 06:30N 35°59' W 005°24'713.2
2017-Jun-28 06:00N 35°57' W 005°32'27611.9
2017-Jun-27 06:52N 32°57' W 009°46'1712.0
2017-Jun-27 05:28N 32°45' W 009°60'2412.0
2017-Jun-27 03:29N 32°25' W 010°15'1211.9
2017-Jun-27 02:29N 32°15' W 010°23'611.7
2017-Jun-27 02:00N 32°10' W 010°27'611.7
2017-Jun-27 01:30N 32°05' W 010°31'911.5
2017-Jun-27 00:44N 31°58' W 010°36'311.5
2017-Jun-27 00:30N 31°56' W 010°38'911.1
2017-Jun-26 23:43N 31°49' W 010°44'1010.7
2017-Jun-26 22:45N 31°40' W 010°50'310.8
2017-Jun-26 22:29N 31°37' W 010°52'510.4
2017-Jun-26 22:00N 31°33' W 010°55'510.3
2017-Jun-26 21:30N 31°29' W 010°59'5 9.9
2017-Jun-26 20:57N 31°24' W 011°02'4 9.9
2017-Jun-26 20:30N 31°21' W 011°05'710.1
2017-Jun-26 19:49N 31°15' W 011°09'310.3
2017-Jun-26 19:30N 31°12' W 011°11'510.4
2017-Jun-26 19:00N 31°08' W 011°15'510.5
2017-Jun-26 18:30N 31°03' W 011°18'610.8
2017-Jun-26 17:59N 30°59' W 011°22'510.9
2017-Jun-26 17:30N 30°54' W 011°25'811.0
2017-Jun-26 16:48N 30°48' W 011°30'311.0
2017-Jun-26 16:30N 30°45' W 011°32'511.0
2017-Jun-26 16:00N 30°40' W 011°35'1311.2
2017-Jun-26 14:48N 30°29' W 011°44'311.3
2017-Jun-26 14:30N 30°26' W 011°46'2211.2
2017-Jun-26 12:30N 30°08' W 012°00'611.7
2017-Jun-26 12:00N 30°03' W 012°04'2612.0
2017-Jun-26 09:51N 29°41' W 012°20'411.7
2017-Jun-26 09:30N 29°38' W 012°23'811.7
2017-Jun-26 08:51N 29°31' W 012°28'411.6
2017-Jun-26 08:30N 29°28' W 012°30'611.8
2017-Jun-26 08:00N 29°23' W 012°34'611.6
2017-Jun-26 07:30N 29°18' W 012°38'611.9
2017-Jun-26 07:00N 29°13' W 012°41'611.5
2017-Jun-26 06:28N 29°08' W 012°45'511.2
2017-Jun-26 06:00N 29°04' W 012°48'611.0
2017-Jun-26 05:29N 28°59' W 012°52'611.5
2017-Jun-26 05:00N 28°54' W 012°55'612.0
2017-Jun-26 04:30N 28°49' W 012°59'711.8
2017-Jun-26 03:56N 28°43' W 013°03'511.7
2017-Jun-26 03:30N 28°39' W 013°06'612.0
2017-Jun-26 03:00N 28°34' W 013°10'611.8
2017-Jun-26 02:27N 28°29' W 013°14'511.8
2017-Jun-26 02:00N 28°24' W 013°18'611.7
2017-Jun-26 01:29N 28°19' W 013°21'611.9
2017-Jun-26 00:58N 28°14' W 013°25'611.7
2017-Jun-26 00:29N 28°09' W 013°29'711.5
2017-Jun-25 23:53N 28°04' W 013°33'411.6
2017-Jun-25 23:30N 27°60' W 013°36'611.5
2017-Jun-25 23:00N 27°56' W 013°40'611.3
2017-Jun-25 22:30N 27°52' W 013°44'611.2
2017-Jun-25 22:00N 27°48' W 013°49'611.4
2017-Jun-25 21:30N 27°44' W 013°54'611.5
2017-Jun-25 21:00N 27°40' W 013°58'611.5
2017-Jun-25 20:30N 27°36' W 014°03'611.3
2017-Jun-25 20:00N 27°32' W 014°07'611.2
2017-Jun-25 19:29N 27°27' W 014°12'611.6
2017-Jun-25 19:00N 27°24' W 014°16'611.6
2017-Jun-25 18:30N 27°20' W 014°21'611.9
2017-Jun-25 18:00N 27°15' W 014°26'611.9
2017-Jun-25 17:30N 27°11' W 014°30'612.1
2017-Jun-25 17:00N 27°07' W 014°35'611.9
2017-Jun-25 16:30N 27°03' W 014°40'612.0
2017-Jun-25 16:00N 26°58' W 014°45'812.1
2017-Jun-25 15:20N 26°53' W 014°51'512.1
2017-Jun-25 14:53N 26°49' W 014°56'512.1
2017-Jun-25 14:28N 26°45' W 014°60'1711.8
2017-Jun-25 13:02N 26°33' W 015°13'111.8
2017-Jun-25 12:56N 26°32' W 015°14'911.7
2017-Jun-25 12:11N 26°26' W 015°21'611.6
2017-Jun-25 11:41N 26°22' W 015°25'311.6
2017-Jun-25 11:24N 26°20' W 015°28'1411.6
2017-Jun-25 10:12N 26°10' W 015°39'411.4
2017-Jun-25 09:52N 26°07' W 015°42'  
Track history (hours):
 
Tides and Currents Weather Stations Pressure Air Temp Water Temp Dewpoint Dewpoint Depression Visibility Wind Speed Wind Dir Waves Ship Positions

Shimanami Star

Last reported at 2017-Jun-28 17:10 UTC. Time now 2017-Jun-29 09:10 UTC.
Position N 35°59' W 005°12'.

Length 170 m; draft 9.8 m.

Type: Cargo ship. MMSI: 309116000.

Date/timePositionNaut miles runAvg speedWind from/ knotsBaromVisibWave heightAir tempDewpointWater temp
2017-Jun-28 17:10N 35°59' W 005°12'215.4
2017-Jun-28 17:00N 35°59' W 005°15'611.1
2017-Jun-28 16:31N 36°02' W 005°21'4 5.7
2017-Jun-28 15:47N 36°05' W 005°25'0 0.0
2017-Jun-28 15:29N 36°05' W 005°25'0 0.0
2017-Jun-28 14:59N 36°05' W 005°25'0 0.1
2017-Jun-28 14:29N 36°05' W 005°25'0 0.1
2017-Jun-28 12:11N 36°05' W 005°25'0 0.1
2017-Jun-28 11:59N 36°05' W 005°25'0 0.1
2017-Jun-28 08:44N 36°05' W 005°25'0 1.2
2017-Jun-28 08:31N 36°05' W 005°25'2 4.2
2017-Jun-28 08:00N 36°04' W 005°22'0 0.5
2017-Jun-28 07:30N 36°04' W 005°22'3 5.2
2017-Jun-28 07:00N 36°01' W 005°21'4 7.4
2017-Jun-28 06:30N 35°59' W 005°24'713.2
2017-Jun-28 06:00N 35°57' W 005°32'27611.9
2017-Jun-27 06:52N 32°57' W 009°46'1712.0
2017-Jun-27 05:28N 32°45' W 009°60'2412.0
2017-Jun-27 03:29N 32°25' W 010°15'1211.9
2017-Jun-27 02:29N 32°15' W 010°23'611.7
2017-Jun-27 02:00N 32°10' W 010°27'611.7
2017-Jun-27 01:30N 32°05' W 010°31'911.5
2017-Jun-27 00:44N 31°58' W 010°36'311.5
2017-Jun-27 00:30N 31°56' W 010°38'911.1
2017-Jun-26 23:43N 31°49' W 010°44'1010.7
2017-Jun-26 22:45N 31°40' W 010°50'310.8
2017-Jun-26 22:29N 31°37' W 010°52'510.4
2017-Jun-26 22:00N 31°33' W 010°55'510.3
2017-Jun-26 21:30N 31°29' W 010°59'5 9.9
2017-Jun-26 20:57N 31°24' W 011°02'4 9.9
2017-Jun-26 20:30N 31°21' W 011°05'710.1
2017-Jun-26 19:49N 31°15' W 011°09'310.3
2017-Jun-26 19:30N 31°12' W 011°11'510.4
2017-Jun-26 19:00N 31°08' W 011°15'510.5
2017-Jun-26 18:30N 31°03' W 011°18'610.8
2017-Jun-26 17:59N 30°59' W 011°22'510.9
2017-Jun-26 17:30N 30°54' W 011°25'811.0
2017-Jun-26 16:48N 30°48' W 011°30'311.0
2017-Jun-26 16:30N 30°45' W 011°32'511.0
2017-Jun-26 16:00N 30°40' W 011°35'1311.2
2017-Jun-26 14:48N 30°29' W 011°44'311.3
2017-Jun-26 14:30N 30°26' W 011°46'2211.2
2017-Jun-26 12:30N 30°08' W 012°00'611.7
2017-Jun-26 12:00N 30°03' W 012°04'2612.0
2017-Jun-26 09:51N 29°41' W 012°20'411.7
2017-Jun-26 09:30N 29°38' W 012°23'811.7
2017-Jun-26 08:51N 29°31' W 012°28'411.6
2017-Jun-26 08:30N 29°28' W 012°30'611.8
2017-Jun-26 08:00N 29°23' W 012°34'611.6
2017-Jun-26 07:30N 29°18' W 012°38'611.9
2017-Jun-26 07:00N 29°13' W 012°41'611.5
2017-Jun-26 06:28N 29°08' W 012°45'511.2
2017-Jun-26 06:00N 29°04' W 012°48'611.0
2017-Jun-26 05:29N 28°59' W 012°52'611.5
2017-Jun-26 05:00N 28°54' W 012°55'612.0
2017-Jun-26 04:30N 28°49' W 012°59'711.8
2017-Jun-26 03:56N 28°43' W 013°03'511.7
2017-Jun-26 03:30N 28°39' W 013°06'612.0
2017-Jun-26 03:00N 28°34' W 013°10'611.8
2017-Jun-26 02:27N 28°29' W 013°14'511.8
2017-Jun-26 02:00N 28°24' W 013°18'611.7
2017-Jun-26 01:29N 28°19' W 013°21'611.9
2017-Jun-26 00:58N 28°14' W 013°25'611.7
2017-Jun-26 00:29N 28°09' W 013°29'711.5
2017-Jun-25 23:53N 28°04' W 013°33'411.6
2017-Jun-25 23:30N 27°60' W 013°36'611.5
2017-Jun-25 23:00N 27°56' W 013°40'611.3
2017-Jun-25 22:30N 27°52' W 013°44'611.2
2017-Jun-25 22:00N 27°48' W 013°49'611.4
2017-Jun-25 21:30N 27°44' W 013°54'611.5
2017-Jun-25 21:00N 27°40' W 013°58'611.5
2017-Jun-25 20:30N 27°36' W 014°03'611.3
2017-Jun-25 20:00N 27°32' W 014°07'611.2
2017-Jun-25 19:29N 27°27' W 014°12'611.6
2017-Jun-25 19:00N 27°24' W 014°16'611.6
2017-Jun-25 18:30N 27°20' W 014°21'611.9
2017-Jun-25 18:00N 27°15' W 014°26'611.9
2017-Jun-25 17:30N 27°11' W 014°30'612.1
2017-Jun-25 17:00N 27°07' W 014°35'611.9
2017-Jun-25 16:30N 27°03' W 014°40'612.0
2017-Jun-25 16:00N 26°58' W 014°45'812.1
2017-Jun-25 15:20N 26°53' W 014°51'512.1
2017-Jun-25 14:53N 26°49' W 014°56'512.1
2017-Jun-25 14:28N 26°45' W 014°60'1711.8
2017-Jun-25 13:02N 26°33' W 015°13'111.8
2017-Jun-25 12:56N 26°32' W 015°14'911.7
2017-Jun-25 12:11N 26°26' W 015°21'611.6
2017-Jun-25 11:41N 26°22' W 015°25'311.6
2017-Jun-25 11:24N 26°20' W 015°28'1411.6
2017-Jun-25 10:12N 26°10' W 015°39'411.4
2017-Jun-25 09:52N 26°07' W 015°42'  

Dump ship's entire track history